Grand Rapids, MI

8:57 AM EST on February 13, 2016 (GMT -0500)
WXGR.NET | | Change Station
CLOSE
Current Station
Personal Weather Station
Location: Grand Rapids, MI
Elevation: 756 ft
Nearby Weather Stations

Elev 756 ft 42.96 °N, 85.63 °W | Updated 2 seconds ago

Overcast
Overcast
8.8 °F
Feels Like 1 °F
N
4.0
Wind Variable Wind from WNW
Gusts 4.0 mph

Today
High -- | Low -- °F
--% Chance of Precip.
Yesterday
High -- | Low -- °F
Precip. -- in
Pressure 30.49 in
Visibility 9.0 miles
Clouds Scattered Clouds 2900 ft
Mostly Cloudy 4800 ft
Windchill 1 °F
Dew Point 0 °F
Humidity 68%
Rainfall 0.00 in
Snow Depth Not available.
7:43 AM 6:10 PM
Waxing Crescent, 31% visible
METAR KGRR 131353Z 30007KT 9SM -SN SCT029 BKN048 M13/M16 A3043 RMK AO2 SLP323 P0000 T11281161
Pressure 30.49 in
Visibility 9.0 miles
Clouds Scattered Clouds 2900 ft
Mostly Cloudy 4800 ft
Windchill 1 °F
Dew Point 0 °F
Humidity 68%
Rainfall 0.00 in
Snow Depth Not available.
7:43 AM 6:10 PM
Waxing Crescent, 31% visible
METAR KGRR 131353Z 30007KT 9SM -SN SCT029 BKN048 M13/M16 A3043 RMK AO2 SLP323 P0000 T11281161

10-Day Weather Forecast

Almanac

Astronomy

Feb. 13, 2016 Rise Set
Actual Time
Civil Twilight
Nautical Twilight
Astronomical Twilight
Moon
Length of Visible Light
Length of Day
Tomorrow will be .
, % of the Moon is Illuminated

Today's Extremes

State Highs State Lows

Community

WunderPhotos

Upload Photos

1,892,547 photos uploaded!

WunderBlog® & News

Nearby

Air Quality

  Air Quality AQ Index Pollutant
Not available.

Snow Depth

Station Depth Elevation

Earthquake Activity

City Distance Mag. Time & Date
Minimum magnitude displayed is 2.5.

Coastal Water Temperatures

Place Temperature

Stations

Nearby Weather Stations

Station Location Temp. Windchill Dew Point Humidity Wind Precip. Elev Updated Type
                   

Watches & Warnings

There are currently no watches in effect.